sensor_id;sensor_type;location;lat;lon;timestamp;P1;durP1;ratioP1;P2;durP2;ratioP2
80307;SDS011;69616;43.522;1.348;2024-03-02T00:01:58;15.32;;;7.10;;
80307;SDS011;69616;43.522;1.348;2024-03-02T00:04:23;16.83;;;6.53;;
80307;SDS011;69616;43.522;1.348;2024-03-02T00:06:51;16.00;;;7.30;;
80307;SDS011;69616;43.522;1.348;2024-03-02T00:09:18;13.77;;;6.40;;
80307;SDS011;69616;43.522;1.348;2024-03-02T00:11:43;14.60;;;5.80;;
80307;SDS011;69616;43.522;1.348;2024-03-02T00:14:09;13.43;;;6.70;;
80307;SDS011;69616;43.522;1.348;2024-03-02T00:16:34;12.90;;;6.33;;
80307;SDS011;69616;43.522;1.348;2024-03-02T00:19:03;14.18;;;6.63;;
80307;SDS011;69616;43.522;1.348;2024-03-02T00:21:31;13.73;;;6.47;;
80307;SDS011;69616;43.522;1.348;2024-03-02T00:23:57;13.68;;;6.78;;
80307;SDS011;69616;43.522;1.348;2024-03-02T00:26:27;18.23;;;7.30;;
80307;SDS011;69616;43.522;1.348;2024-03-02T00:28:56;14.95;;;7.13;;
80307;SDS011;69616;43.522;1.348;2024-03-02T00:31:25;14.02;;;7.30;;
80307;SDS011;69616;43.522;1.348;2024-03-02T00:33:51;13.67;;;7.10;;
80307;SDS011;69616;43.522;1.348;2024-03-02T00:36:21;16.17;;;7.05;;
80307;SDS011;69616;43.522;1.348;2024-03-02T00:38:50;15.95;;;6.70;;
80307;SDS011;69616;43.522;1.348;2024-03-02T00:43:58;14.27;;;6.63;;
80307;SDS011;69616;43.522;1.348;2024-03-02T00:46:26;15.50;;;6.68;;
80307;SDS011;69616;43.522;1.348;2024-03-02T00:48:59;13.63;;;6.00;;
80307;SDS011;69616;43.522;1.348;2024-03-02T00:51:27;14.23;;;6.18;;
80307;SDS011;69616;43.522;1.348;2024-03-02T00:53:54;12.27;;;5.70;;
80307;SDS011;69616;43.522;1.348;2024-03-02T00:56:22;12.13;;;5.85;;
80307;SDS011;69616;43.522;1.348;2024-03-02T00:58:48;13.68;;;5.80;;
80307;SDS011;69616;43.522;1.348;2024-03-02T01:01:13;13.83;;;6.20;;
80307;SDS011;69616;43.522;1.348;2024-03-02T01:03:39;11.60;;;5.72;;
80307;SDS011;69616;43.522;1.348;2024-03-02T01:06:06;13.00;;;6.03;;
80307;SDS011;69616;43.522;1.348;2024-03-02T01:08:32;13.88;;;5.70;;
80307;SDS011;69616;43.522;1.348;2024-03-02T01:10:58;14.00;;;6.03;;
80307;SDS011;69616;43.522;1.348;2024-03-02T01:13:24;15.20;;;6.85;;
80307;SDS011;69616;43.522;1.348;2024-03-02T01:15:49;18.33;;;6.27;;
80307;SDS011;69616;43.522;1.348;2024-03-02T01:18:15;13.37;;;5.40;;
80307;SDS011;69616;43.522;1.348;2024-03-02T01:20:40;13.00;;;5.75;;
80307;SDS011;69616;43.522;1.348;2024-03-02T01:23:06;13.77;;;5.60;;
80307;SDS011;69616;43.522;1.348;2024-03-02T01:25:31;12.80;;;5.53;;
80307;SDS011;69616;43.522;1.348;2024-03-02T01:27:57;14.45;;;6.22;;
80307;SDS011;69616;43.522;1.348;2024-03-02T01:30:22;16.00;;;6.47;;
80307;SDS011;69616;43.522;1.348;2024-03-02T01:32:48;13.07;;;6.27;;
80307;SDS011;69616;43.522;1.348;2024-03-02T01:35:13;14.03;;;6.30;;
80307;SDS011;69616;43.522;1.348;2024-03-02T01:37:40;12.77;;;6.20;;
80307;SDS011;69616;43.522;1.348;2024-03-02T01:40:05;18.63;;;7.60;;
80307;SDS011;69616;43.522;1.348;2024-03-02T01:42:35;14.20;;;7.00;;
80307;SDS011;69616;43.522;1.348;2024-03-02T01:45:01;15.97;;;6.17;;
80307;SDS011;69616;43.522;1.348;2024-03-02T01:47:27;17.63;;;7.38;;
80307;SDS011;69616;43.522;1.348;2024-03-02T01:49:52;16.47;;;6.67;;
80307;SDS011;69616;43.522;1.348;2024-03-02T01:52:18;17.77;;;7.50;;
80307;SDS011;69616;43.522;1.348;2024-03-02T01:54:43;18.03;;;6.90;;
80307;SDS011;69616;43.522;1.348;2024-03-02T01:57:09;13.33;;;6.70;;
80307;SDS011;69616;43.522;1.348;2024-03-02T01:59:35;17.63;;;7.70;;
80307;SDS011;69616;43.522;1.348;2024-03-02T02:02:00;14.47;;;7.00;;
80307;SDS011;69616;43.522;1.348;2024-03-02T02:04:26;18.02;;;7.70;;
80307;SDS011;69616;43.522;1.348;2024-03-02T02:06:53;19.10;;;8.30;;
80307;SDS011;69616;43.522;1.348;2024-03-02T02:09:19;18.30;;;7.40;;
80307;SDS011;69616;43.522;1.348;2024-03-02T02:11:44;18.48;;;7.85;;
80307;SDS011;69616;43.522;1.348;2024-03-02T02:14:10;16.03;;;8.23;;
80307;SDS011;69616;43.522;1.348;2024-03-02T02:16:36;16.20;;;7.93;;
80307;SDS011;69616;43.522;1.348;2024-03-02T02:19:01;20.17;;;8.93;;
80307;SDS011;69616;43.522;1.348;2024-03-02T02:21:27;17.57;;;8.27;;
80307;SDS011;69616;43.522;1.348;2024-03-02T02:23:52;16.90;;;7.77;;
80307;SDS011;69616;43.522;1.348;2024-03-02T02:26:18;18.20;;;7.83;;
80307;SDS011;69616;43.522;1.348;2024-03-02T02:28:43;16.03;;;7.47;;
80307;SDS011;69616;43.522;1.348;2024-03-02T02:31:12;17.10;;;7.95;;
80307;SDS011;69616;43.522;1.348;2024-03-02T02:33:41;14.80;;;7.03;;
80307;SDS011;69616;43.522;1.348;2024-03-02T02:36:07;17.10;;;7.20;;
80307;SDS011;69616;43.522;1.348;2024-03-02T02:38:33;16.17;;;7.40;;
80307;SDS011;69616;43.522;1.348;2024-03-02T02:41:01;16.58;;;7.25;;
80307;SDS011;69616;43.522;1.348;2024-03-02T02:43:27;14.87;;;6.83;;
80307;SDS011;69616;43.522;1.348;2024-03-02T02:45:52;17.00;;;7.17;;
80307;SDS011;69616;43.522;1.348;2024-03-02T02:48:18;14.50;;;6.30;;
80307;SDS011;69616;43.522;1.348;2024-03-02T02:50:43;14.23;;;6.80;;
80307;SDS011;69616;43.522;1.348;2024-03-02T02:53:09;16.53;;;7.60;;
80307;SDS011;69616;43.522;1.348;2024-03-02T02:55:35;13.18;;;6.88;;
80307;SDS011;69616;43.522;1.348;2024-03-02T02:58:02;15.45;;;6.90;;
80307;SDS011;69616;43.522;1.348;2024-03-02T03:00:28;14.97;;;6.70;;
80307;SDS011;69616;43.522;1.348;2024-03-02T03:02:53;14.73;;;6.63;;
80307;SDS011;69616;43.522;1.348;2024-03-02T03:05:19;13.00;;;6.43;;
80307;SDS011;69616;43.522;1.348;2024-03-02T03:07:44;15.23;;;6.57;;
80307;SDS011;69616;43.522;1.348;2024-03-02T03:10:10;12.17;;;5.53;;
80307;SDS011;69616;43.522;1.348;2024-03-02T03:12:35;12.20;;;5.70;;
80307;SDS011;69616;43.522;1.348;2024-03-02T03:15:01;10.98;;;5.35;;
80307;SDS011;69616;43.522;1.348;2024-03-02T03:17:29;14.15;;;5.93;;
80307;SDS011;69616;43.522;1.348;2024-03-02T03:19:54;17.23;;;5.87;;
80307;SDS011;69616;43.522;1.348;2024-03-02T03:22:20;12.87;;;5.77;;
80307;SDS011;69616;43.522;1.348;2024-03-02T03:24:45;12.03;;;5.73;;
80307;SDS011;69616;43.522;1.348;2024-03-02T03:27:11;11.65;;;5.90;;
80307;SDS011;69616;43.522;1.348;2024-03-02T03:29:37;11.83;;;5.00;;
80307;SDS011;69616;43.522;1.348;2024-03-02T03:32:02;14.70;;;5.40;;
80307;SDS011;69616;43.522;1.348;2024-03-02T03:34:28;11.20;;;5.10;;
80307;SDS011;69616;43.522;1.348;2024-03-02T03:36:54;12.02;;;5.45;;
80307;SDS011;69616;43.522;1.348;2024-03-02T03:39:19;12.80;;;5.13;;
80307;SDS011;69616;43.522;1.348;2024-03-02T03:41:45;11.23;;;5.18;;
80307;SDS011;69616;43.522;1.348;2024-03-02T03:44:10;11.93;;;5.10;;
80307;SDS011;69616;43.522;1.348;2024-03-02T03:46:35;12.67;;;5.60;;
80307;SDS011;69616;43.522;1.348;2024-03-02T03:49:01;12.27;;;5.32;;
80307;SDS011;69616;43.522;1.348;2024-03-02T03:51:27;11.60;;;5.10;;
80307;SDS011;69616;43.522;1.348;2024-03-02T03:53:52;11.23;;;5.43;;
80307;SDS011;69616;43.522;1.348;2024-03-02T03:56:17;11.40;;;5.20;;
80307;SDS011;69616;43.522;1.348;2024-03-02T03:58:43;10.50;;;5.07;;
80307;SDS011;69616;43.522;1.348;2024-03-02T04:01:08;13.48;;;5.30;;
80307;SDS011;69616;43.522;1.348;2024-03-02T04:03:34;12.73;;;5.23;;
80307;SDS011;69616;43.522;1.348;2024-03-02T04:05:59;10.90;;;4.77;;
80307;SDS011;69616;43.522;1.348;2024-03-02T04:08:25;9.85;;;4.82;;
80307;SDS011;69616;43.522;1.348;2024-03-02T04:10:50;9.87;;;4.57;;
80307;SDS011;69616;43.522;1.348;2024-03-02T04:13:15;10.63;;;4.70;;
80307;SDS011;69616;43.522;1.348;2024-03-02T04:15:41;14.47;;;4.77;;
80307;SDS011;69616;43.522;1.348;2024-03-02T04:18:06;13.10;;;4.90;;
80307;SDS011;69616;43.522;1.348;2024-03-02T04:20:32;10.25;;;4.38;;
80307;SDS011;69616;43.522;1.348;2024-03-02T04:22:57;9.17;;;4.13;;
80307;SDS011;69616;43.522;1.348;2024-03-02T04:25:22;12.60;;;4.57;;
80307;SDS011;69616;43.522;1.348;2024-03-02T04:27:48;8.20;;;3.63;;
80307;SDS011;69616;43.522;1.348;2024-03-02T04:30:13;11.38;;;4.55;;
80307;SDS011;69616;43.522;1.348;2024-03-02T04:32:39;11.40;;;4.17;;
80307;SDS011;69616;43.522;1.348;2024-03-02T04:35:04;10.33;;;4.53;;
80307;SDS011;69616;43.522;1.348;2024-03-02T04:37:34;7.97;;;3.70;;
80307;SDS011;69616;43.522;1.348;2024-03-02T04:39:59;9.82;;;4.00;;
80307;SDS011;69616;43.522;1.348;2024-03-02T04:42:25;8.80;;;3.37;;
80307;SDS011;69616;43.522;1.348;2024-03-02T04:44:50;9.63;;;3.60;;
80307;SDS011;69616;43.522;1.348;2024-03-02T04:47:16;10.27;;;3.33;;
80307;SDS011;69616;43.522;1.348;2024-03-02T04:49:41;9.90;;;3.53;;
80307;SDS011;69616;43.522;1.348;2024-03-02T04:52:06;9.67;;;3.90;;
80307;SDS011;69616;43.522;1.348;2024-03-02T04:54:32;8.37;;;3.87;;
80307;SDS011;69616;43.522;1.348;2024-03-02T04:56:57;10.20;;;3.67;;
80307;SDS011;69616;43.522;1.348;2024-03-02T04:59:23;9.55;;;3.58;;
80307;SDS011;69616;43.522;1.348;2024-03-02T05:01:48;9.23;;;3.77;;
80307;SDS011;69616;43.522;1.348;2024-03-02T05:04:14;12.33;;;4.17;;
80307;SDS011;69616;43.522;1.348;2024-03-02T05:06:39;9.68;;;3.85;;
80307;SDS011;69616;43.522;1.348;2024-03-02T05:09:06;7.93;;;3.40;;
80307;SDS011;69616;43.522;1.348;2024-03-02T05:11:31;12.23;;;3.78;;
80307;SDS011;69616;43.522;1.348;2024-03-02T05:14:03;11.45;;;3.92;;
80307;SDS011;69616;43.522;1.348;2024-03-02T05:16:28;8.77;;;3.67;;
80307;SDS011;69616;43.522;1.348;2024-03-02T05:18:54;7.33;;;3.33;;
80307;SDS011;69616;43.522;1.348;2024-03-02T05:21:19;10.80;;;4.13;;
80307;SDS011;69616;43.522;1.348;2024-03-02T05:23:45;8.60;;;3.07;;
80307;SDS011;69616;43.522;1.348;2024-03-02T05:26:10;9.38;;;3.40;;
80307;SDS011;69616;43.522;1.348;2024-03-02T05:28:38;11.33;;;3.83;;
80307;SDS011;69616;43.522;1.348;2024-03-02T05:31:03;11.65;;;3.88;;
80307;SDS011;69616;43.522;1.348;2024-03-02T05:33:29;8.55;;;3.42;;
80307;SDS011;69616;43.522;1.348;2024-03-02T05:35:56;9.02;;;3.17;;
80307;SDS011;69616;43.522;1.348;2024-03-02T05:38:22;8.83;;;3.57;;
80307;SDS011;69616;43.522;1.348;2024-03-02T05:40:47;10.77;;;3.57;;
80307;SDS011;69616;43.522;1.348;2024-03-02T05:43:13;9.68;;;3.60;;
80307;SDS011;69616;43.522;1.348;2024-03-02T05:45:39;10.33;;;3.40;;
80307;SDS011;69616;43.522;1.348;2024-03-02T05:48:05;9.00;;;3.35;;
80307;SDS011;69616;43.522;1.348;2024-03-02T05:50:34;7.60;;;2.92;;
80307;SDS011;69616;43.522;1.348;2024-03-02T05:52:59;8.33;;;3.10;;
80307;SDS011;69616;43.522;1.348;2024-03-02T05:55:25;9.60;;;3.60;;
80307;SDS011;69616;43.522;1.348;2024-03-02T05:57:50;11.23;;;3.70;;
80307;SDS011;69616;43.522;1.348;2024-03-02T06:00:22;9.18;;;3.42;;
80307;SDS011;69616;43.522;1.348;2024-03-02T06:02:47;10.50;;;3.03;;
80307;SDS011;69616;43.522;1.348;2024-03-02T06:05:13;7.35;;;3.15;;
80307;SDS011;69616;43.522;1.348;2024-03-02T06:07:38;9.47;;;2.73;;
80307;SDS011;69616;43.522;1.348;2024-03-02T06:10:04;6.78;;;3.13;;
80307;SDS011;69616;43.522;1.348;2024-03-02T06:12:32;7.17;;;3.27;;
80307;SDS011;69616;43.522;1.348;2024-03-02T06:14:57;10.13;;;3.60;;
80307;SDS011;69616;43.522;1.348;2024-03-02T06:17:23;9.53;;;4.30;;
80307;SDS011;69616;43.522;1.348;2024-03-02T06:19:48;8.67;;;4.10;;
80307;SDS011;69616;43.522;1.348;2024-03-02T06:22:14;11.27;;;4.10;;
80307;SDS011;69616;43.522;1.348;2024-03-02T06:24:39;12.57;;;4.60;;
80307;SDS011;69616;43.522;1.348;2024-03-02T06:27:05;8.50;;;3.93;;
80307;SDS011;69616;43.522;1.348;2024-03-02T06:29:33;11.03;;;3.50;;
80307;SDS011;69616;43.522;1.348;2024-03-02T06:31:59;10.23;;;3.90;;
80307;SDS011;69616;43.522;1.348;2024-03-02T06:34:25;11.80;;;3.50;;
80307;SDS011;69616;43.522;1.348;2024-03-02T06:36:50;9.17;;;3.63;;
80307;SDS011;69616;43.522;1.348;2024-03-02T06:39:15;9.77;;;4.03;;
80307;SDS011;69616;43.522;1.348;2024-03-02T06:41:41;11.73;;;5.40;;
80307;SDS011;69616;43.522;1.348;2024-03-02T06:44:07;16.10;;;7.28;;
80307;SDS011;69616;43.522;1.348;2024-03-02T06:46:33;14.53;;;4.57;;
80307;SDS011;69616;43.522;1.348;2024-03-02T06:48:58;10.87;;;4.40;;
80307;SDS011;69616;43.522;1.348;2024-03-02T06:51:24;11.50;;;3.50;;
80307;SDS011;69616;43.522;1.348;2024-03-02T06:53:49;11.77;;;3.83;;
80307;SDS011;69616;43.522;1.348;2024-03-02T06:56:14;10.63;;;3.53;;
80307;SDS011;69616;43.522;1.348;2024-03-02T06:58:40;8.53;;;3.97;;
80307;SDS011;69616;43.522;1.348;2024-03-02T07:01:05;11.10;;;3.90;;
80307;SDS011;69616;43.522;1.348;2024-03-02T07:03:30;9.63;;;3.77;;
80307;SDS011;69616;43.522;1.348;2024-03-02T07:05:57;9.80;;;3.60;;
80307;SDS011;69616;43.522;1.348;2024-03-02T07:08:23;12.93;;;3.67;;
80307;SDS011;69616;43.522;1.348;2024-03-02T07:10:48;10.18;;;3.63;;
80307;SDS011;69616;43.522;1.348;2024-03-02T07:13:15;10.63;;;3.50;;
80307;SDS011;69616;43.522;1.348;2024-03-02T07:15:40;7.97;;;3.28;;
80307;SDS011;69616;43.522;1.348;2024-03-02T07:18:35;11.33;;;3.57;;
80307;SDS011;69616;43.522;1.348;2024-03-02T07:21:06;11.48;;;3.70;;
80307;SDS011;69616;43.522;1.348;2024-03-02T07:23:32;11.55;;;3.88;;
80307;SDS011;69616;43.522;1.348;2024-03-02T07:25:57;11.10;;;3.77;;
80307;SDS011;69616;43.522;1.348;2024-03-02T07:28:25;13.60;;;3.63;;
80307;SDS011;69616;43.522;1.348;2024-03-02T07:30:58;10.15;;;3.65;;
80307;SDS011;69616;43.522;1.348;2024-03-02T07:33:27;13.07;;;3.63;;
80307;SDS011;69616;43.522;1.348;2024-03-02T07:35:53;11.23;;;3.87;;
80307;SDS011;69616;43.522;1.348;2024-03-02T07:38:19;20.63;;;3.83;;
80307;SDS011;69616;43.522;1.348;2024-03-02T07:40:45;11.83;;;3.80;;
80307;SDS011;69616;43.522;1.348;2024-03-02T07:43:11;11.90;;;3.97;;
80307;SDS011;69616;43.522;1.348;2024-03-02T07:45:36;10.10;;;4.10;;
80307;SDS011;69616;43.522;1.348;2024-03-02T07:48:02;9.10;;;3.40;;
80307;SDS011;69616;43.522;1.348;2024-03-02T07:50:29;10.55;;;3.15;;
80307;SDS011;69616;43.522;1.348;2024-03-02T07:52:55;8.68;;;3.20;;
80307;SDS011;69616;43.522;1.348;2024-03-02T07:55:21;11.00;;;3.90;;
80307;SDS011;69616;43.522;1.348;2024-03-02T07:57:46;10.90;;;3.67;;
80307;SDS011;69616;43.522;1.348;2024-03-02T08:00:12;10.07;;;3.70;;
80307;SDS011;69616;43.522;1.348;2024-03-02T08:02:37;14.80;;;4.03;;
80307;SDS011;69616;43.522;1.348;2024-03-02T08:05:03;9.75;;;4.03;;
80307;SDS011;69616;43.522;1.348;2024-03-02T08:07:28;10.00;;;4.00;;
80307;SDS011;69616;43.522;1.348;2024-03-02T08:09:54;8.90;;;3.53;;
80307;SDS011;69616;43.522;1.348;2024-03-02T08:12:19;8.40;;;3.23;;
80307;SDS011;69616;43.522;1.348;2024-03-02T08:14:48;8.85;;;3.30;;
80307;SDS011;69616;43.522;1.348;2024-03-02T08:17:13;10.40;;;3.43;;
80307;SDS011;69616;43.522;1.348;2024-03-02T08:19:39;9.33;;;3.00;;
80307;SDS011;69616;43.522;1.348;2024-03-02T08:22:04;7.50;;;2.80;;
80307;SDS011;69616;43.522;1.348;2024-03-02T08:24:30;8.88;;;2.90;;
80307;SDS011;69616;43.522;1.348;2024-03-02T08:26:55;9.83;;;2.80;;
80307;SDS011;69616;43.522;1.348;2024-03-02T08:29:20;8.63;;;2.50;;
80307;SDS011;69616;43.522;1.348;2024-03-02T08:31:46;8.13;;;2.83;;
80307;SDS011;69616;43.522;1.348;2024-03-02T08:34:12;8.48;;;2.40;;
80307;SDS011;69616;43.522;1.348;2024-03-02T08:36:37;10.00;;;2.73;;
80307;SDS011;69616;43.522;1.348;2024-03-02T08:39:03;10.38;;;3.40;;
80307;SDS011;69616;43.522;1.348;2024-03-02T08:41:32;9.37;;;2.53;;
80307;SDS011;69616;43.522;1.348;2024-03-02T08:43:58;11.52;;;2.50;;
80307;SDS011;69616;43.522;1.348;2024-03-02T08:46:23;25.03;;;8.47;;
80307;SDS011;69616;43.522;1.348;2024-03-02T08:48:49;18.20;;;5.27;;
80307;SDS011;69616;43.522;1.348;2024-03-02T08:51:14;27.65;;;6.72;;
80307;SDS011;69616;43.522;1.348;2024-03-02T08:53:39;10.80;;;2.27;;
80307;SDS011;69616;43.522;1.348;2024-03-02T08:56:05;42.47;;;9.77;;
80307;SDS011;69616;43.522;1.348;2024-03-02T08:58:31;12.75;;;3.20;;
80307;SDS011;69616;43.522;1.348;2024-03-02T09:00:57;12.53;;;3.47;;
80307;SDS011;69616;43.522;1.348;2024-03-02T09:03:22;13.50;;;3.40;;
80307;SDS011;69616;43.522;1.348;2024-03-02T09:05:48;13.13;;;2.80;;
80307;SDS011;69616;43.522;1.348;2024-03-02T09:08:13;8.60;;;2.80;;
80307;SDS011;69616;43.522;1.348;2024-03-02T09:10:38;9.27;;;2.73;;
80307;SDS011;69616;43.522;1.348;2024-03-02T09:13:05;10.38;;;2.55;;
80307;SDS011;69616;43.522;1.348;2024-03-02T09:15:30;9.70;;;2.28;;
80307;SDS011;69616;43.522;1.348;2024-03-02T09:17:56;9.97;;;2.60;;
80307;SDS011;69616;43.522;1.348;2024-03-02T09:20:21;9.53;;;2.37;;
80307;SDS011;69616;43.522;1.348;2024-03-02T09:22:46;8.30;;;2.43;;
80307;SDS011;69616;43.522;1.348;2024-03-02T09:25:13;8.18;;;2.50;;
80307;SDS011;69616;43.522;1.348;2024-03-02T09:27:39;17.75;;;3.13;;
80307;SDS011;69616;43.522;1.348;2024-03-02T09:30:05;13.43;;;2.83;;
80307;SDS011;69616;43.522;1.348;2024-03-02T09:32:33;7.32;;;2.20;;
80307;SDS011;69616;43.522;1.348;2024-03-02T09:34:58;10.43;;;2.67;;
80307;SDS011;69616;43.522;1.348;2024-03-02T09:37:24;11.63;;;2.73;;
80307;SDS011;69616;43.522;1.348;2024-03-02T09:39:49;12.33;;;3.30;;
80307;SDS011;69616;43.522;1.348;2024-03-02T09:42:14;9.82;;;2.67;;
80307;SDS011;69616;43.522;1.348;2024-03-02T09:44:40;13.83;;;2.57;;
80307;SDS011;69616;43.522;1.348;2024-03-02T09:47:07;12.98;;;2.92;;
80307;SDS011;69616;43.522;1.348;2024-03-02T09:49:33;14.70;;;3.00;;
80307;SDS011;69616;43.522;1.348;2024-03-02T09:51:59;14.43;;;2.80;;
80307;SDS011;69616;43.522;1.348;2024-03-02T09:54:25;14.50;;;3.00;;
80307;SDS011;69616;43.522;1.348;2024-03-02T09:56:51;8.67;;;2.60;;
80307;SDS011;69616;43.522;1.348;2024-03-02T09:59:17;13.20;;;2.80;;
80307;SDS011;69616;43.522;1.348;2024-03-02T10:01:59;12.60;;;2.60;;
80307;SDS011;69616;43.522;1.348;2024-03-02T10:04:26;12.68;;;2.30;;
80307;SDS011;69616;43.522;1.348;2024-03-02T10:09:50;14.32;;;2.70;;
80307;SDS011;69616;43.522;1.348;2024-03-02T10:12:17;12.30;;;2.40;;
80307;SDS011;69616;43.522;1.348;2024-03-02T10:14:43;12.13;;;2.42;;
80307;SDS011;69616;43.522;1.348;2024-03-02T10:17:10;16.17;;;3.05;;
80307;SDS011;69616;43.522;1.348;2024-03-02T10:19:40;14.18;;;3.40;;
80307;SDS011;69616;43.522;1.348;2024-03-02T10:22:06;11.90;;;2.97;;
80307;SDS011;69616;43.522;1.348;2024-03-02T10:24:42;22.58;;;4.78;;
80307;SDS011;69616;43.522;1.348;2024-03-02T10:27:17;15.60;;;3.45;;
80307;SDS011;69616;43.522;1.348;2024-03-02T10:29:51;18.20;;;4.45;;
80307;SDS011;69616;43.522;1.348;2024-03-02T10:32:16;19.30;;;4.47;;
80307;SDS011;69616;43.522;1.348;2024-03-02T10:34:42;17.73;;;4.70;;
80307;SDS011;69616;43.522;1.348;2024-03-02T10:37:12;12.55;;;2.83;;
80307;SDS011;69616;43.522;1.348;2024-03-02T10:39:37;18.00;;;3.67;;
80307;SDS011;69616;43.522;1.348;2024-03-02T10:42:07;22.02;;;4.40;;
80307;SDS011;69616;43.522;1.348;2024-03-02T10:44:33;14.35;;;3.75;;
80307;SDS011;69616;43.522;1.348;2024-03-02T10:47:00;16.15;;;4.15;;
80307;SDS011;69616;43.522;1.348;2024-03-02T10:49:29;14.17;;;3.63;;
80307;SDS011;69616;43.522;1.348;2024-03-02T10:52:00;13.52;;;3.17;;
80307;SDS011;69616;43.522;1.348;2024-03-02T10:54:26;16.58;;;3.30;;
80307;SDS011;69616;43.522;1.348;2024-03-02T10:56:54;18.33;;;3.78;;
80307;SDS011;69616;43.522;1.348;2024-03-02T11:02:00;12.67;;;3.10;;
80307;SDS011;69616;43.522;1.348;2024-03-02T11:04:27;11.30;;;2.90;;
80307;SDS011;69616;43.522;1.348;2024-03-02T11:07:11;11.00;;;2.92;;
80307;SDS011;69616;43.522;1.348;2024-03-02T11:09:41;13.75;;;3.15;;
80307;SDS011;69616;43.522;1.348;2024-03-02T11:12:28;9.45;;;2.70;;
80307;SDS011;69616;43.522;1.348;2024-03-02T11:14:56;15.73;;;4.20;;
80307;SDS011;69616;43.522;1.348;2024-03-02T11:17:23;14.15;;;3.50;;
80307;SDS011;69616;43.522;1.348;2024-03-02T11:19:50;10.55;;;2.90;;
80307;SDS011;69616;43.522;1.348;2024-03-02T11:22:16;12.65;;;3.00;;
80307;SDS011;69616;43.522;1.348;2024-03-02T11:24:49;15.05;;;3.13;;
80307;SDS011;69616;43.522;1.348;2024-03-02T11:27:58;22.53;;;5.43;;
80307;SDS011;69616;43.522;1.348;2024-03-02T11:30:14;18.92;;;4.63;;
80307;SDS011;69616;43.522;1.348;2024-03-02T11:33:01;15.30;;;3.70;;
80307;SDS011;69616;43.522;1.348;2024-03-02T11:35:33;17.65;;;4.25;;
80307;SDS011;69616;43.522;1.348;2024-03-02T11:38:00;15.73;;;3.40;;
80307;SDS011;69616;43.522;1.348;2024-03-02T11:40:26;15.10;;;3.40;;
80307;SDS011;69616;43.522;1.348;2024-03-02T11:42:53;14.90;;;4.63;;
80307;SDS011;69616;43.522;1.348;2024-03-02T11:45:22;12.15;;;3.10;;
80307;SDS011;69616;43.522;1.348;2024-03-02T11:47:55;13.35;;;3.45;;
80307;SDS011;69616;43.522;1.348;2024-03-02T11:50:57;10.88;;;2.97;;
80307;SDS011;69616;43.522;1.348;2024-03-02T11:53:17;13.00;;;4.60;;
80307;SDS011;69616;43.522;1.348;2024-03-02T11:55:44;13.02;;;2.60;;
80307;SDS011;69616;43.522;1.348;2024-03-02T11:58:14;14.07;;;2.83;;
80307;SDS011;69616;43.522;1.348;2024-03-02T12:00:42;11.20;;;2.05;;
80307;SDS011;69616;43.522;1.348;2024-03-02T12:03:09;9.37;;;2.70;;
80307;SDS011;69616;43.522;1.348;2024-03-02T12:05:37;11.50;;;2.17;;
80307;SDS011;69616;43.522;1.348;2024-03-02T12:08:06;10.13;;;2.53;;
80307;SDS011;69616;43.522;1.348;2024-03-02T12:10:32;13.00;;;2.78;;
80307;SDS011;69616;43.522;1.348;2024-03-02T12:12:59;9.68;;;2.05;;
80307;SDS011;69616;43.522;1.348;2024-03-02T12:15:26;12.07;;;2.42;;
80307;SDS011;69616;43.522;1.348;2024-03-02T12:17:54;10.25;;;2.03;;
80307;SDS011;69616;43.522;1.348;2024-03-02T12:20:23;12.60;;;2.73;;
80307;SDS011;69616;43.522;1.348;2024-03-02T12:22:53;10.85;;;2.10;;
80307;SDS011;69616;43.522;1.348;2024-03-02T12:25:20;10.30;;;2.10;;
80307;SDS011;69616;43.522;1.348;2024-03-02T12:27:47;10.85;;;2.50;;
80307;SDS011;69616;43.522;1.348;2024-03-02T12:30:15;10.63;;;2.50;;
80307;SDS011;69616;43.522;1.348;2024-03-02T12:32:42;14.17;;;2.73;;
80307;SDS011;69616;43.522;1.348;2024-03-02T12:35:07;8.18;;;2.30;;
80307;SDS011;69616;43.522;1.348;2024-03-02T12:37:33;7.35;;;2.17;;
80307;SDS011;69616;43.522;1.348;2024-03-02T12:40:06;12.93;;;2.50;;
80307;SDS011;69616;43.522;1.348;2024-03-02T12:42:41;12.20;;;2.03;;
80307;SDS011;69616;43.522;1.348;2024-03-02T12:45:09;9.68;;;2.10;;
80307;SDS011;69616;43.522;1.348;2024-03-02T12:47:35;13.40;;;2.40;;
80307;SDS011;69616;43.522;1.348;2024-03-02T12:50:01;9.35;;;2.20;;
80307;SDS011;69616;43.522;1.348;2024-03-02T12:52:27;8.57;;;2.28;;
80307;SDS011;69616;43.522;1.348;2024-03-02T12:54:53;10.03;;;2.07;;
80307;SDS011;69616;43.522;1.348;2024-03-02T12:57:24;8.70;;;2.30;;
80307;SDS011;69616;43.522;1.348;2024-03-02T12:59:50;6.50;;;2.08;;
80307;SDS011;69616;43.522;1.348;2024-03-02T13:02:19;9.23;;;2.17;;
80307;SDS011;69616;43.522;1.348;2024-03-02T13:04:54;11.52;;;2.35;;
80307;SDS011;69616;43.522;1.348;2024-03-02T13:07:21;9.75;;;2.25;;
80307;SDS011;69616;43.522;1.348;2024-03-02T13:09:49;8.68;;;1.88;;
80307;SDS011;69616;43.522;1.348;2024-03-02T13:12:15;8.67;;;1.97;;
80307;SDS011;69616;43.522;1.348;2024-03-02T13:14:42;12.13;;;1.70;;
80307;SDS011;69616;43.522;1.348;2024-03-02T13:17:10;8.85;;;2.15;;
80307;SDS011;69616;43.522;1.348;2024-03-02T13:19:43;10.93;;;1.80;;
80307;SDS011;69616;43.522;1.348;2024-03-02T13:22:15;10.73;;;1.83;;
80307;SDS011;69616;43.522;1.348;2024-03-02T13:24:40;7.50;;;1.70;;
80307;SDS011;69616;43.522;1.348;2024-03-02T13:27:07;7.72;;;1.90;;
80307;SDS011;69616;43.522;1.348;2024-03-02T13:29:33;9.40;;;1.98;;
80307;SDS011;69616;43.522;1.348;2024-03-02T13:31:58;11.47;;;2.33;;
80307;SDS011;69616;43.522;1.348;2024-03-02T13:34:24;9.60;;;2.33;;
80307;SDS011;69616;43.522;1.348;2024-03-02T13:36:49;8.53;;;1.87;;
80307;SDS011;69616;43.522;1.348;2024-03-02T13:39:15;9.55;;;2.10;;
80307;SDS011;69616;43.522;1.348;2024-03-02T13:41:41;8.83;;;2.00;;
80307;SDS011;69616;43.522;1.348;2024-03-02T13:44:06;10.57;;;2.17;;
80307;SDS011;69616;43.522;1.348;2024-03-02T13:46:32;11.17;;;2.07;;
80307;SDS011;69616;43.522;1.348;2024-03-02T13:48:57;10.95;;;1.80;;
80307;SDS011;69616;43.522;1.348;2024-03-02T13:51:23;9.33;;;2.50;;
80307;SDS011;69616;43.522;1.348;2024-03-02T13:53:50;9.13;;;2.40;;
80307;SDS011;69616;43.522;1.348;2024-03-02T13:56:16;11.67;;;2.40;;
80307;SDS011;69616;43.522;1.348;2024-03-02T13:58:42;9.98;;;2.20;;
80307;SDS011;69616;43.522;1.348;2024-03-02T14:01:08;7.75;;;2.10;;
80307;SDS011;69616;43.522;1.348;2024-03-02T14:03:34;12.50;;;2.37;;
80307;SDS011;69616;43.522;1.348;2024-03-02T14:05:59;12.77;;;3.00;;
80307;SDS011;69616;43.522;1.348;2024-03-02T14:08:25;10.65;;;2.88;;
80307;SDS011;69616;43.522;1.348;2024-03-02T14:10:50;14.80;;;3.60;;
80307;SDS011;69616;43.522;1.348;2024-03-02T14:13:16;12.07;;;3.23;;
80307;SDS011;69616;43.522;1.348;2024-03-02T14:15:41;10.85;;;3.15;;
80307;SDS011;69616;43.522;1.348;2024-03-02T14:18:07;9.80;;;1.93;;
80307;SDS011;69616;43.522;1.348;2024-03-02T14:20:35;8.88;;;1.90;;
80307;SDS011;69616;43.522;1.348;2024-03-02T14:23:00;8.57;;;2.10;;
80307;SDS011;69616;43.522;1.348;2024-03-02T14:25:27;9.55;;;2.60;;
80307;SDS011;69616;43.522;1.348;2024-03-02T14:27:56;14.60;;;3.72;;
80307;SDS011;69616;43.522;1.348;2024-03-02T14:30:22;11.02;;;2.80;;
80307;SDS011;69616;43.522;1.348;2024-03-02T14:32:48;13.60;;;2.70;;
80307;SDS011;69616;43.522;1.348;2024-03-02T14:35:13;11.63;;;2.50;;
80307;SDS011;69616;43.522;1.348;2024-03-02T14:37:40;8.85;;;2.10;;
80307;SDS011;69616;43.522;1.348;2024-03-02T14:40:05;10.90;;;2.30;;
80307;SDS011;69616;43.522;1.348;2024-03-02T14:42:33;8.57;;;2.47;;
80307;SDS011;69616;43.522;1.348;2024-03-02T14:44:59;8.93;;;1.88;;